Time;durP1;ratioP1;P1;durP2;ratioP2;P2;SDS_P1;SDS_P2;PMS_P1;PMS_P2;Temp;Humidity;BMP_temperature;BMP_pressure;BME280_temperature;BME280_humidity;BME280_pressure;Samples;Min_cycle;Max_cycle;Signal;HPM_P1;HPM_P2
2021/03/04 00:05:02;;;;;;;260.53;89.63;;;;;6.80;101906.00;;;;10479050;28;20540;-76
2021/03/04 00:10:09;;;;;;;282.53;93.37;;;;;6.80;101929.00;;;;10411345;28;20220;-76
2021/03/04 00:15:13;;;;;;;339.87;81.50;;;;;6.70;101939.00;;;;10443850;28;20202;-76
2021/03/04 00:20:26;;;;;;;388.67;85.53;;;;;6.60;101924.00;;;;10456514;28;20300;-76
2021/03/04 00:25:34;;;;;;;469.70;94.47;;;;;6.50;101926.00;;;;10485030;28;20193;-75
2021/03/04 00:30:36;;;;;;;296.87;93.90;;;;;6.50;101918.00;;;;10485519;28;20209;-75
2021/03/04 00:35:37;;;;;;;485.13;98.27;;;;;6.60;101913.00;;;;10468347;28;20216;-75
2021/03/04 00:40:39;;;;;;;434.30;91.47;;;;;6.50;101922.00;;;;10410023;28;20236;-75
2021/03/04 00:45:40;;;;;;;333.53;88.00;;;;;6.40;101927.00;;;;10425825;28;20198;-75
2021/03/04 00:50:42;;;;;;;355.53;91.70;;;;;6.40;101917.00;;;;10440841;28;20229;-75
2021/03/04 00:55:43;;;;;;;392.37;92.03;;;;;6.40;101908.00;;;;10449873;28;20216;-75
2021/03/04 01:00:45;;;;;;;253.47;84.20;;;;;6.50;101908.00;;;;10467617;28;20185;-75
2021/03/04 01:05:46;;;;;;;262.13;89.43;;;;;6.50;101911.00;;;;10450079;28;20244;-76
2021/03/04 01:10:49;;;;;;;311.97;83.87;;;;;6.50;101896.00;;;;10483855;28;20201;-74
2021/03/04 01:15:51;;;;;;;255.70;81.13;;;;;6.40;101881.00;;;;10483209;28;20255;-75
2021/03/04 01:21:04;;;;;;;233.37;87.17;;;;;6.40;101870.00;;;;10451160;28;20200;-74
2021/03/04 01:26:06;;;;;;;268.57;84.57;;;;;6.40;101860.00;;;;10482758;28;20192;-74
2021/03/04 01:31:07;;;;;;;292.23;96.87;;;;;6.40;101850.00;;;;10482080;28;20221;-74
2021/03/04 01:36:09;;;;;;;269.50;85.13;;;;;6.40;101838.00;;;;10465011;28;20289;-75
2021/03/04 01:41:10;;;;;;;290.90;96.43;;;;;6.40;101824.00;;;;10448050;28;20197;-76
2021/03/04 01:46:12;;;;;;;287.13;96.90;;;;;6.40;101818.00;;;;10465197;28;20193;-75
2021/03/04 01:51:24;;;;;;;307.93;95.87;;;;;6.50;101808.00;;;;10466182;28;20207;-75
2021/03/04 01:56:30;;;;;;;299.87;99.07;;;;;6.50;101797.00;;;;10482180;28;20205;-74
2021/03/04 02:01:33;;;;;;;281.77;93.53;;;;;6.50;101796.00;;;;10464184;28;20189;-74
2021/03/04 02:06:46;;;;;;;261.47;91.73;;;;;6.60;101800.00;;;;10447687;28;20178;-75
2021/03/04 02:11:53;;;;;;;252.73;92.17;;;;;6.60;101789.00;;;;10464297;28;20190;-75
2021/03/04 02:16:58;;;;;;;256.33;90.87;;;;;6.60;101762.00;;;;10480262;28;20303;-74
2021/03/04 02:22:16;;;;;;;228.67;89.90;;;;;6.50;101788.00;;;;10480842;28;20189;-74
2021/03/04 02:27:21;;;;;;;221.77;83.70;;;;;6.50;101791.00;;;;10431310;28;20640;-74
2021/03/04 02:32:25;;;;;;;215.60;80.40;;;;;6.40;101789.00;;;;10446787;28;20717;-74
2021/03/04 02:37:32;;;;;;;176.13;75.97;;;;;6.40;101785.00;;;;10426863;28;20240;-74
2021/03/04 02:42:33;;;;;;;190.50;76.20;;;;;6.40;101779.00;;;;10463901;28;20223;-74
2021/03/04 02:47:41;;;;;;;153.13;67.07;;;;;6.30;101760.00;;;;10496260;28;20201;-74
2021/03/04 02:52:44;;;;;;;185.73;78.43;;;;;6.30;101758.00;;;;10495872;28;20194;-74
2021/03/04 02:57:47;;;;;;;191.27;76.73;;;;;6.40;101744.00;;;;10462528;28;20275;-74
2021/03/04 03:02:50;;;;;;;199.70;81.00;;;;;6.40;101735.00;;;;10479599;28;20224;-75
2021/03/04 03:07:53;;;;;;;209.50;82.53;;;;;6.40;101722.00;;;;10462435;28;20652;-74
2021/03/04 03:13:00;;;;;;;203.60;78.43;;;;;6.50;101717.00;;;;10479311;28;20181;-74
2021/03/04 03:18:06;;;;;;;199.10;78.80;;;;;6.50;101724.00;;;;10468105;28;20595;-75
2021/03/04 03:23:08;;;;;;;204.60;82.57;;;;;6.40;101705.00;;;;10470035;28;20201;-75
2021/03/04 03:28:09;;;;;;;189.40;77.23;;;;;6.40;101707.00;;;;10471074;28;20181;-75
2021/03/04 03:33:16;;;;;;;175.07;75.30;;;;;6.40;101713.00;;;;10470001;28;20196;-75
2021/03/04 03:38:19;;;;;;;186.47;75.37;;;;;6.40;101692.00;;;;10469934;28;20206;-75
2021/03/04 03:43:23;;;;;;;173.50;74.73;;;;;6.40;101710.00;;;;10486256;28;20224;-75
2021/03/04 03:48:27;;;;;;;172.37;73.80;;;;;6.40;101711.00;;;;10469510;28;20209;-75
2021/03/04 03:53:29;;;;;;;180.60;72.97;;;;;6.50;101706.00;;;;10485507;28;20942;-75
2021/03/04 03:58:31;;;;;;;183.23;75.43;;;;;6.40;101709.00;;;;10486557;28;20228;-75
2021/03/04 04:03:33;;;;;;;175.20;73.90;;;;;6.40;101713.00;;;;10453763;28;20182;-75
2021/03/04 04:08:35;;;;;;;193.37;73.97;;;;;6.40;101705.00;;;;10503894;28;20213;-75
2021/03/04 04:13:37;;;;;;;193.10;72.83;;;;;6.30;101701.00;;;;10468781;28;20197;-75
2021/03/04 04:18:39;;;;;;;206.50;76.07;;;;;6.30;101705.00;;;;10468611;28;20270;-75
2021/03/04 04:23:42;;;;;;;215.93;67.13;;;;;6.20;101688.00;;;;10468278;28;20189;-75
2021/03/04 04:28:44;;;;;;;172.27;63.53;;;;;6.00;101686.00;;;;10509481;28;20197;-75
2021/03/04 04:33:45;;;;;;;183.80;70.07;;;;;5.90;101677.00;;;;10526033;28;20594;-75
2021/03/04 04:38:46;;;;;;;204.30;68.13;;;;;5.90;101679.00;;;;10498073;28;20286;-75
2021/03/04 04:43:47;;;;;;;159.70;53.53;;;;;5.80;101658.00;;;;10481060;28;20590;-75
2021/03/04 04:48:49;;;;;;;147.87;55.40;;;;;5.70;101669.00;;;;10426206;28;20194;-75
2021/03/04 04:53:50;;;;;;;154.20;57.67;;;;;5.60;101668.00;;;;10442169;28;20194;-75
2021/03/04 04:58:52;;;;;;;156.50;61.07;;;;;5.60;101658.00;;;;10409260;28;20214;-75
2021/03/04 05:03:53;;;;;;;172.20;62.23;;;;;5.60;101656.00;;;;10426224;28;20784;-75
2021/03/04 05:08:54;;;;;;;199.60;66.50;;;;;5.70;101645.00;;;;10464724;28;20197;-75
2021/03/04 05:14:01;;;;;;;233.43;75.03;;;;;5.70;101643.00;;;;10442331;28;20183;-75
2021/03/04 05:19:03;;;;;;;224.23;73.27;;;;;5.80;101648.00;;;;10424980;28;20212;-75
2021/03/04 05:24:07;;;;;;;277.03;78.90;;;;;5.90;101651.00;;;;10426034;28;20198;-75
2021/03/04 05:29:09;;;;;;;265.33;75.17;;;;;5.90;101651.00;;;;10408385;28;20309;-75
2021/03/04 05:34:10;;;;;;;274.90;77.97;;;;;5.80;101644.00;;;;10424202;28;20530;-75
2021/03/04 05:39:11;;;;;;;300.03;82.37;;;;;5.80;101635.00;;;;10457734;28;20252;-75
2021/03/04 05:44:14;;;;;;;326.13;85.57;;;;;5.90;101638.00;;;;10444637;28;20297;-75
2021/03/04 05:49:18;;;;;;;316.83;81.27;;;;;6.00;101630.00;;;;10440136;28;20252;-75
2021/03/04 05:54:35;;;;;;;341.97;84.47;;;;;5.90;101616.00;;;;10409522;28;20220;-77
2021/03/04 05:59:37;;;;;;;301.07;77.80;;;;;6.00;101615.00;;;;10439661;28;20218;-75
2021/03/04 06:04:38;;;;;;;326.93;85.17;;;;;5.90;101609.00;;;;10459831;28;20217;-75
2021/03/04 06:09:40;;;;;;;336.37;84.00;;;;;5.90;101600.00;;;;10463821;28;20198;-75
2021/03/04 06:14:41;;;;;;;415.57;87.93;;;;;5.90;101598.00;;;;10464815;28;20193;-75
2021/03/04 06:19:56;;;;;;;378.33;85.30;;;;;5.90;101600.00;;;;10491539;28;20232;-75
2021/03/04 06:24:59;;;;;;;425.73;86.47;;;;;5.90;101603.00;;;;10505056;28;20199;-75
2021/03/04 06:30:14;;;;;;;516.13;98.03;;;;;5.90;101607.00;;;;10505071;28;20196;-75
2021/03/04 06:35:15;;;;;;;446.87;93.80;;;;;5.90;101607.00;;;;10504958;28;20189;-75
2021/03/04 06:40:27;;;;;;;585.77;108.07;;;;;6.00;101594.00;;;;10475235;28;20209;-75
2021/03/04 06:45:31;;;;;;;468.53;97.80;;;;;6.00;101584.00;;;;10462457;28;20658;-75
2021/03/04 06:50:33;;;;;;;529.53;100.27;;;;;6.00;101588.00;;;;10463360;28;20223;-75
2021/03/04 06:55:35;;;;;;;670.23;109.50;;;;;6.00;101609.00;;;;10462941;28;20217;-75
2021/03/04 07:00:36;;;;;;;565.50;93.87;;;;;5.90;101623.00;;;;10496913;28;20196;-75
2021/03/04 07:05:37;;;;;;;546.93;96.83;;;;;5.90;101633.00;;;;10463126;28;20193;-75
2021/03/04 07:10:39;;;;;;;586.77;100.87;;;;;5.80;101624.00;;;;10478906;28;20661;-75
2021/03/04 07:15:41;;;;;;;615.80;99.07;;;;;5.90;101613.00;;;;10462709;28;20220;-75
2021/03/04 07:20:43;;;;;;;746.10;117.50;;;;;5.90;101609.00;;;;10462182;28;20193;-75
2021/03/04 07:25:45;;;;;;;537.90;94.40;;;;;6.00;101609.00;;;;10478706;28;20197;-75
2021/03/04 07:30:47;;;;;;;491.73;89.33;;;;;6.00;101599.00;;;;10479976;28;20279;-75
2021/03/04 07:35:49;;;;;;;432.97;86.20;;;;;6.10;101608.00;;;;10445256;28;20247;-75
2021/03/04 07:41:03;;;;;;;420.87;85.17;;;;;6.20;101603.00;;;;10428537;28;20285;-75
2021/03/04 07:46:04;;;;;;;359.97;80.83;;;;;6.30;101607.00;;;;10404232;28;20201;-75
2021/03/04 07:51:06;;;;;;;294.97;72.50;;;;;6.40;101609.00;;;;10455104;28;20192;-74
2021/03/04 07:56:07;;;;;;;256.70;68.73;;;;;6.40;101627.00;;;;10454873;28;20252;-74
2021/03/04 08:01:12;;;;;;;286.40;69.53;;;;;6.50;101628.00;;;;10455594;28;20247;-74
2021/03/04 08:06:14;;;;;;;216.90;62.47;;;;;6.50;101639.00;;;;10409793;28;20190;-75
2021/03/04 08:11:26;;;;;;;200.63;56.77;;;;;6.50;101640.00;;;;10440167;28;20597;-75
2021/03/04 08:16:28;;;;;;;200.73;56.83;;;;;6.40;101638.00;;;;10462858;28;20190;-75
2021/03/04 08:21:30;;;;;;;237.10;62.90;;;;;6.40;101634.00;;;;10484984;28;20199;-74
2021/03/04 08:26:36;;;;;;;238.43;61.57;;;;;6.30;101634.00;;;;10468647;28;20221;-74
2021/03/04 08:31:45;;;;;;;238.60;59.37;;;;;6.20;101621.00;;;;10467997;28;20198;-75
2021/03/04 08:36:49;;;;;;;283.13;64.50;;;;;6.10;101618.00;;;;10468050;28;20217;-75
2021/03/04 08:42:02;;;;;;;270.10;60.40;;;;;6.00;101613.00;;;;10451087;28;20209;-74
2021/03/04 08:47:04;;;;;;;218.63;54.63;;;;;6.10;101601.00;;;;10467234;28;20197;-74
2021/03/04 08:52:06;;;;;;;234.67;59.20;;;;;6.10;101602.00;;;;10467873;28;20210;-75
2021/03/04 08:57:08;;;;;;;213.90;51.83;;;;;6.10;101606.00;;;;10483290;28;20206;-75
2021/03/04 09:02:15;;;;;;;197.37;50.80;;;;;6.20;101595.00;;;;10466386;28;20789;-75
2021/03/04 09:07:32;;;;;;;201.93;53.73;;;;;6.20;101599.00;;;;10448154;28;20544;-75
2021/03/04 09:12:59;;;;;;;166.60;45.37;;;;;6.20;101598.00;;;;10455599;28;20243;-75
2021/03/04 09:18:07;;;;;;;176.27;48.33;;;;;6.20;101608.00;;;;10461899;28;20212;-75
2021/03/04 09:23:09;;;;;;;178.60;48.90;;;;;6.20;101605.00;;;;10464896;28;20995;-75
2021/03/04 09:28:15;;;;;;;146.63;41.57;;;;;6.20;101618.00;;;;10496368;28;20255;-75
2021/03/04 09:33:26;;;;;;;163.03;45.37;;;;;6.20;101612.00;;;;10440521;28;20194;-75
2021/03/04 09:38:30;;;;;;;126.07;39.13;;;;;6.20;101609.00;;;;10437401;28;20688;-75
2021/03/04 09:43:46;;;;;;;116.47;36.83;;;;;6.40;101607.00;;;;10415050;28;20197;-75
2021/03/04 09:48:47;;;;;;;163.07;46.10;;;;;6.30;101625.00;;;;10462053;28;20201;-75
2021/03/04 09:53:49;;;;;;;172.03;49.50;;;;;6.30;101628.00;;;;10439727;28;20202;-75
2021/03/04 09:58:50;;;;;;;149.67;46.00;;;;;6.40;101622.00;;;;10448119;28;20206;-75
2021/03/04 10:03:59;;;;;;;150.53;45.23;;;;;6.40;101622.00;;;;10438328;28;20276;-75
2021/03/04 10:09:04;;;;;;;160.23;44.73;;;;;6.30;101619.00;;;;10423677;28;20521;-75
2021/03/04 10:14:10;;;;;;;156.93;45.97;;;;;6.40;101614.00;;;;10416659;28;20229;-75
2021/03/04 10:19:11;;;;;;;135.03;40.00;;;;;6.30;101629.00;;;;10433859;28;20206;-75
2021/03/04 10:24:15;;;;;;;130.93;40.50;;;;;6.30;101637.00;;;;10405654;28;20531;-75
2021/03/04 10:29:16;;;;;;;147.60;42.67;;;;;6.20;101616.00;;;;10428923;28;20213;-75
2021/03/04 10:34:18;;;;;;;146.30;44.17;;;;;6.30;101601.00;;;;10450930;28;20200;-75
2021/03/04 10:39:21;;;;;;;143.10;48.30;;;;;6.30;101602.00;;;;10450212;28;20680;-75
2021/03/04 10:44:23;;;;;;;142.10;45.10;;;;;6.40;101615.00;;;;10463515;28;20276;-75
2021/03/04 10:49:24;;;;;;;128.23;42.23;;;;;6.40;101614.00;;;;10462513;28;20311;-75
2021/03/04 10:54:26;;;;;;;132.57;42.03;;;;;6.40;101616.00;;;;10419849;28;20286;-75
2021/03/04 10:59:27;;;;;;;111.83;37.83;;;;;6.50;101624.00;;;;10443201;28;20221;-75
2021/03/04 11:04:28;;;;;;;100.10;34.63;;;;;6.50;101620.00;;;;10460970;28;20524;-75
2021/03/04 11:15:31;;;;;;;75.33;28.67;;;;;6.40;101635.00;;;;9821280;30;20248;-75
2021/03/04 11:20:32;;;;;;;68.60;25.93;;;;;6.50;101640.00;;;;9778069;30;20245;-76
2021/03/04 11:25:33;;;;;;;55.13;24.70;;;;;6.60;101644.00;;;;9817340;30;20205;-75
2021/03/04 11:30:35;;;;;;;49.27;21.70;;;;;6.60;101648.00;;;;9831309;30;20201;-76
2021/03/04 11:35:37;;;;;;;45.70;20.60;;;;;6.60;101641.00;;;;9817263;30;20691;-75
2021/03/04 11:40:38;;;;;;;49.63;23.03;;;;;6.60;101646.00;;;;9786959;30;20248;-76
2021/03/04 11:45:40;;;;;;;46.20;18.40;;;;;6.70;101638.00;;;;9817141;30;20271;-76
2021/03/04 11:50:41;;;;;;;43.23;18.43;;;;;6.80;101645.00;;;;9802040;30;20237;-75
2021/03/04 11:55:42;;;;;;;36.37;15.90;;;;;6.90;101637.00;;;;9787839;30;20202;-76
2021/03/04 12:00:45;;;;;;;33.17;16.40;;;;;7.00;101630.00;;;;9806377;30;20229;-75
2021/03/04 12:05:48;;;;;;;38.73;16.50;;;;;7.00;101626.00;;;;9823183;30;20193;-76
2021/03/04 12:10:51;;;;;;;36.53;15.83;;;;;6.80;101621.00;;;;9847228;30;20209;-76
2021/03/04 12:15:52;;;;;;;34.97;16.63;;;;;6.60;101623.00;;;;9785875;30;20300;-75
2021/03/04 12:20:55;;;;;;;37.10;16.73;;;;;6.60;101605.00;;;;9801780;30;20198;-75
2021/03/04 12:25:57;;;;;;;39.87;17.10;;;;;6.70;101607.00;;;;9802149;30;20198;-75
2021/03/04 12:31:16;;;;;;;45.47;19.60;;;;;6.80;101613.00;;;;9767303;30;20237;-75
2021/03/04 12:36:18;;;;;;;52.83;20.17;;;;;6.80;101608.00;;;;9755043;30;20315;-75
2021/03/04 12:41:19;;;;;;;51.87;21.07;;;;;6.80;101604.00;;;;9800441;30;20201;-75
2021/03/04 12:46:21;;;;;;;48.83;21.67;;;;;6.70;101596.00;;;;9768093;30;20237;-75
2021/03/04 12:51:23;;;;;;;53.70;22.37;;;;;6.70;101598.00;;;;9813353;30;20205;-75
2021/03/04 12:56:24;;;;;;;44.97;17.90;;;;;6.50;101588.00;;;;9799802;30;20577;-75
2021/03/04 13:01:25;;;;;;;49.93;20.00;;;;;6.40;101588.00;;;;9793820;30;20210;-75
2021/03/04 13:06:27;;;;;;;41.90;18.33;;;;;6.40;101597.00;;;;9790923;30;20200;-75
2021/03/04 13:11:31;;;;;;;46.90;18.87;;;;;6.20;101591.00;;;;9797476;30;20728;-76
2021/03/04 13:16:32;;;;;;;39.57;16.57;;;;;6.10;101590.00;;;;9792621;30;20279;-76
2021/03/04 13:21:34;;;;;;;42.37;19.30;;;;;6.10;101592.00;;;;9774598;30;20217;-75
2021/03/04 13:26:35;;;;;;;52.67;22.27;;;;;6.00;101591.00;;;;9794642;30;20202;-75
2021/03/04 13:31:37;;;;;;;73.53;27.77;;;;;5.90;101586.00;;;;9782587;30;20240;-75
2021/03/04 13:36:38;;;;;;;125.73;41.73;;;;;5.80;101587.00;;;;9792992;30;20221;-76
2021/03/04 13:41:40;;;;;;;145.37;47.77;;;;;5.90;101595.00;;;;9795604;30;20774;-76
2021/03/04 13:46:41;;;;;;;153.00;50.30;;;;;6.00;101596.00;;;;9795977;30;20674;-76
2021/03/04 13:51:43;;;;;;;163.27;54.10;;;;;6.00;101582.00;;;;9771545;30;20741;-76
2021/03/04 13:56:45;;;;;;;152.47;52.27;;;;;5.90;101597.00;;;;9778135;30;20245;-76
2021/03/04 14:01:46;;;;;;;130.43;46.27;;;;;5.80;101596.00;;;;9794739;30;20842;-76
2021/03/04 14:06:51;;;;;;;123.57;43.47;;;;;5.70;101591.00;;;;9763276;30;20551;-76
2021/03/04 14:11:55;;;;;;;118.03;42.63;;;;;5.60;101589.00;;;;9726510;30;1944252;-76
2021/03/04 14:16:56;;;;;;;95.47;37.67;;;;;5.50;101594.00;;;;9807872;30;20225;-76
2021/03/04 14:21:58;;;;;;;109.67;36.40;;;;;5.40;101604.00;;;;9764589;30;20237;-76
2021/03/04 14:27:02;;;;;;;99.37;33.07;;;;;5.50;101608.00;;;;9797981;30;20572;-76
2021/03/04 14:32:04;;;;;;;103.57;31.73;;;;;5.60;101604.00;;;;9802231;30;20293;-76
2021/03/04 14:37:06;;;;;;;119.87;45.17;;;;;5.60;101613.00;;;;9782891;30;20214;-76
2021/03/04 14:42:07;;;;;;;128.20;42.97;;;;;5.60;101598.00;;;;9796847;30;20206;-76
2021/03/04 14:47:09;;;;;;;146.03;46.43;;;;;5.40;101599.00;;;;9781364;30;20198;-76
2021/03/04 14:52:10;;;;;;;153.97;47.63;;;;;5.40;101598.00;;;;9780450;30;20307;-76
2021/03/04 14:57:12;;;;;;;150.57;46.83;;;;;5.30;101604.00;;;;9781258;30;20275;-76
2021/03/04 15:02:13;;;;;;;122.57;40.17;;;;;5.20;101592.00;;;;9794131;30;20247;-76
2021/03/04 15:07:14;;;;;;;400.77;238.10;;;;;5.20;101604.00;;;;9796628;30;20193;-76
2021/03/04 15:12:17;;;;;;;669.93;479.37;;;;;5.10;101601.00;;;;9798822;30;20636;-76
2021/03/04 15:17:19;;;;;;;160.33;56.67;;;;;5.20;101602.00;;;;9819574;30;20229;-76
2021/03/04 15:22:20;;;;;;;152.57;44.43;;;;;5.30;101602.00;;;;9822980;30;20202;-76
2021/03/04 15:27:21;;;;;;;143.73;42.43;;;;;5.40;101612.00;;;;9792662;30;20641;-76
2021/03/04 15:32:25;;;;;;;149.40;43.00;;;;;5.40;101616.00;;;;9808354;30;20212;-76
2021/03/04 15:37:27;;;;;;;146.20;42.23;;;;;5.30;101606.00;;;;9779308;30;20221;-76
2021/03/04 15:42:29;;;;;;;136.00;39.60;;;;;5.20;101608.00;;;;9807219;30;20206;-76
2021/03/04 15:47:31;;;;;;;129.07;37.07;;;;;5.20;101606.00;;;;9796409;30;20583;-76
2021/03/04 15:52:33;;;;;;;137.10;41.40;;;;;5.20;101599.00;;;;9811888;30;20221;-77
2021/03/04 15:57:35;;;;;;;125.90;36.23;;;;;5.20;101597.00;;;;9786074;30;20275;-76
2021/03/04 16:02:37;;;;;;;112.30;34.83;;;;;5.20;101599.00;;;;9777191;30;20217;-76
2021/03/04 16:07:40;;;;;;;117.97;34.70;;;;;5.20;101605.00;;;;9791142;30;20862;-77
2021/03/04 16:12:42;;;;;;;124.27;37.60;;;;;5.20;101600.00;;;;9805498;30;20242;-76
2021/03/04 16:17:44;;;;;;;111.03;40.47;;;;;5.10;101606.00;;;;9769728;30;20233;-76
2021/03/04 16:22:46;;;;;;;113.73;35.57;;;;;5.10;101599.00;;;;9783555;30;20209;-77
2021/03/04 16:27:59;;;;;;;107.80;33.97;;;;;5.00;101603.00;;;;9809852;30;20208;-77
2021/03/04 16:33:04;;;;;;;104.40;34.00;;;;;5.00;101623.00;;;;9784238;30;20284;-77
2021/03/04 16:38:07;;;;;;;90.13;30.97;;;;;5.00;101614.00;;;;9801280;30;20218;-77
2021/03/04 16:43:09;;;;;;;89.27;30.90;;;;;4.90;101621.00;;;;9800620;30;20617;-77
2021/03/04 16:48:10;;;;;;;85.53;31.07;;;;;4.90;101626.00;;;;9770643;30;20237;-76
2021/03/04 16:53:17;;;;;;;86.17;31.47;;;;;4.90;101621.00;;;;9771114;30;20805;-76
2021/03/04 16:58:19;;;;;;;82.13;27.43;;;;;4.90;101630.00;;;;9799783;30;20224;-76
2021/03/04 17:03:20;;;;;;;77.53;27.90;;;;;4.90;101637.00;;;;9815559;30;20225;-76
2021/03/04 17:08:22;;;;;;;80.97;28.57;;;;;4.90;101645.00;;;;9797249;30;20206;-76
2021/03/04 17:13:24;;;;;;;66.57;27.40;;;;;4.90;101646.00;;;;9783873;30;20658;-76
2021/03/04 17:18:26;;;;;;;74.43;27.97;;;;;4.80;101658.00;;;;9798906;30;20209;-76
2021/03/04 17:23:27;;;;;;;71.93;27.33;;;;;4.80;101656.00;;;;9770473;30;21006;-76
2021/03/04 17:28:30;;;;;;;63.43;26.07;;;;;4.80;101667.00;;;;9785085;30;20230;-76
2021/03/04 17:33:33;;;;;;;59.50;25.00;;;;;4.70;101682.00;;;;9785501;30;20322;-76
2021/03/04 17:38:35;;;;;;;64.97;24.03;;;;;4.70;101679.00;;;;9799126;30;20232;-77
2021/03/04 17:43:36;;;;;;;61.97;27.03;;;;;4.70;101689.00;;;;9813663;30;20289;-77
2021/03/04 17:48:37;;;;;;;58.07;24.27;;;;;4.70;101682.00;;;;9784625;30;20255;-76
2021/03/04 17:53:39;;;;;;;67.73;31.03;;;;;4.70;101696.00;;;;9769641;30;20565;-76
2021/03/04 17:58:40;;;;;;;58.10;25.77;;;;;4.70;101696.00;;;;9797971;30;20253;-76
2021/03/04 18:03:41;;;;;;;59.13;28.50;;;;;4.70;101704.00;;;;9783894;30;20206;-76
2021/03/04 18:08:45;;;;;;;59.80;27.83;;;;;4.60;101703.00;;;;9769160;30;20262;-76
2021/03/04 18:13:47;;;;;;;53.73;24.97;;;;;4.70;101701.00;;;;9782709;30;20241;-77
2021/03/04 18:18:49;;;;;;;47.90;20.10;;;;;4.70;101705.00;;;;9798839;30;20600;-77
2021/03/04 18:23:50;;;;;;;45.37;21.23;;;;;4.60;101702.00;;;;9797358;30;20761;-76
2021/03/04 18:28:52;;;;;;;47.43;21.77;;;;;4.60;101704.00;;;;9797788;30;20197;-76
2021/03/04 18:33:53;;;;;;;45.63;21.90;;;;;4.50;101703.00;;;;9797609;30;20202;-76
2021/03/04 18:38:55;;;;;;;52.93;22.90;;;;;4.50;101697.00;;;;9796556;30;20214;-76
2021/03/04 18:43:56;;;;;;;49.47;20.73;;;;;4.50;101708.00;;;;9796899;30;20210;-76
2021/03/04 18:48:58;;;;;;;48.67;23.93;;;;;4.50;101712.00;;;;9796661;30;20198;-77
2021/03/04 18:53:59;;;;;;;48.30;25.47;;;;;4.50;101713.00;;;;9781847;30;20208;-76
2021/03/04 18:59:02;;;;;;;48.80;25.77;;;;;4.50;101701.00;;;;9761054;30;20276;-77
2021/03/04 19:04:12;;;;;;;55.40;26.43;;;;;4.50;101700.00;;;;9760846;30;20237;-76
2021/03/04 19:09:13;;;;;;;64.30;29.87;;;;;4.50;101693.00;;;;9777445;30;20288;-77
2021/03/04 19:14:14;;;;;;;57.80;29.40;;;;;4.50;101704.00;;;;9781619;30;20316;-76
2021/03/04 19:19:18;;;;;;;60.70;30.53;;;;;4.40;101704.00;;;;9795990;30;20308;-76
2021/03/04 19:24:20;;;;;;;57.93;30.37;;;;;4.40;101704.00;;;;9781443;30;20304;-77
2021/03/04 19:29:21;;;;;;;55.43;31.80;;;;;4.40;101699.00;;;;9780982;30;20206;-76
2021/03/04 19:34:36;;;;;;;45.47;26.07;;;;;4.40;101697.00;;;;9808869;30;20206;-77
2021/03/04 19:39:37;;;;;;;47.83;26.90;;;;;4.40;101704.00;;;;9795464;30;20260;-76
2021/03/04 19:44:39;;;;;;;45.33;26.03;;;;;4.40;101709.00;;;;9781332;30;20230;-76
2021/03/04 19:49:41;;;;;;;40.67;24.53;;;;;4.30;101714.00;;;;9797213;30;20240;-77
2021/03/04 19:54:43;;;;;;;44.83;23.57;;;;;4.30;101714.00;;;;9796035;30;20206;-76
2021/03/04 19:59:44;;;;;;;39.37;23.07;;;;;4.30;101722.00;;;;9733758;30;20300;-77
2021/03/04 20:04:58;;;;;;;38.53;23.47;;;;;4.30;101717.00;;;;9751410;30;20205;-76
2021/03/04 20:09:59;;;;;;;35.70;21.70;;;;;4.40;101727.00;;;;9774993;30;20243;-77
2021/03/04 20:15:08;;;;;;;45.23;25.80;;;;;4.40;101730.00;;;;9787047;30;20233;-77
2021/03/04 20:20:14;;;;;;;34.93;22.33;;;;;4.40;101731.00;;;;9802386;30;20578;-77
2021/03/04 20:25:16;;;;;;;41.70;24.27;;;;;4.40;101735.00;;;;9786676;30;20655;-77
2021/03/04 20:30:17;;;;;;;37.20;21.40;;;;;4.40;101751.00;;;;9786636;30;20237;-76
2021/03/04 20:35:25;;;;;;;35.43;21.90;;;;;4.40;101753.00;;;;9750744;30;20293;-76
2021/03/04 20:40:27;;;;;;;33.43;22.10;;;;;4.40;101755.00;;;;9791829;30;20226;-76
2021/03/04 20:45:29;;;;;;;56.37;32.07;;;;;4.40;101751.00;;;;9781575;30;20259;-76
2021/03/04 20:50:31;;;;;;;72.13;40.77;;;;;4.40;101768.00;;;;9815827;30;20202;-76
2021/03/04 20:55:33;;;;;;;31.10;18.83;;;;;4.50;101770.00;;;;9800179;30;20260;-77
2021/03/04 21:00:35;;;;;;;32.33;18.33;;;;;4.50;101771.00;;;;9785501;30;20281;-77
2021/03/04 21:05:46;;;;;;;28.53;16.13;;;;;4.50;101774.00;;;;9800713;30;20201;-77
2021/03/04 21:10:48;;;;;;;22.03;13.73;;;;;4.50;101785.00;;;;9784846;30;20226;-76
2021/03/04 21:15:50;;;;;;;27.73;11.20;;;;;4.50;101790.00;;;;9785047;30;20271;-77
2021/03/04 21:20:52;;;;;;;31.60;14.73;;;;;4.40;101792.00;;;;9799567;30;20628;-76
2021/03/04 21:25:53;;;;;;;23.50;15.00;;;;;4.40;101790.00;;;;9799558;30;20209;-77
2021/03/04 21:30:55;;;;;;;18.37;9.37;;;;;4.30;101799.00;;;;9788897;30;20221;-76
2021/03/04 21:36:09;;;;;;;20.63;9.73;;;;;4.20;101815.00;;;;9768730;30;20213;-76
2021/03/04 21:41:10;;;;;;;16.57;8.10;;;;;4.20;101811.00;;;;9778002;30;20218;-77
2021/03/04 21:46:11;;;;;;;15.87;7.50;;;;;4.20;101799.00;;;;9748279;30;20216;-76
2021/03/04 21:51:13;;;;;;;15.70;7.13;;;;;4.10;101807.00;;;;9748406;30;20198;-77
2021/03/04 21:56:15;;;;;;;14.70;5.73;;;;;4.10;101805.00;;;;9825336;30;20247;-77
2021/03/04 22:01:16;;;;;;;17.00;6.43;;;;;4.10;101803.00;;;;9784406;30;20224;-76
2021/03/04 22:06:33;;;;;;;14.77;6.57;;;;;4.00;101814.00;;;;9784987;30;20535;-77
2021/03/04 22:11:35;;;;;;;18.00;7.67;;;;;4.00;101819.00;;;;9814516;30;20710;-76
2021/03/04 22:16:37;;;;;;;20.07;7.67;;;;;3.90;101816.00;;;;9783223;30;20216;-76
2021/03/04 22:21:39;;;;;;;19.93;6.77;;;;;3.90;101823.00;;;;9767828;30;20212;-75
2021/03/04 22:26:40;;;;;;;23.60;8.23;;;;;3.90;101820.00;;;;9768737;30;20205;-76
2021/03/04 22:31:42;;;;;;;16.43;6.83;;;;;3.90;101821.00;;;;9782272;30;20217;-77
2021/03/04 22:36:55;;;;;;;17.17;8.73;;;;;3.90;101820.00;;;;9796800;30;20226;-77
2021/03/04 22:41:57;;;;;;;16.70;8.43;;;;;3.90;101828.00;;;;9779897;30;20228;-77
2021/03/04 22:46:58;;;;;;;17.30;7.97;;;;;3.90;101833.00;;;;9783238;30;20558;-76
2021/03/04 22:52:03;;;;;;;23.77;6.57;;;;;3.80;101828.00;;;;9782530;30;20198;-77
2021/03/04 22:57:05;;;;;;;17.00;6.30;;;;;3.80;101830.00;;;;9806273;30;20252;-77
2021/03/04 23:02:07;;;;;;;14.43;5.07;;;;;3.70;101835.00;;;;9791972;30;20202;-77
2021/03/04 23:07:18;;;;;;;16.83;5.50;;;;;3.70;101841.00;;;;9776302;30;20197;-76
2021/03/04 23:12:19;;;;;;;14.57;4.40;;;;;3.70;101843.00;;;;9796978;30;20282;-76
2021/03/04 23:17:22;;;;;;;14.13;3.90;;;;;3.60;101845.00;;;;9781785;30;20221;-76
2021/03/04 23:22:25;;;;;;;13.73;3.50;;;;;3.60;101847.00;;;;9767334;30;20210;-77
2021/03/04 23:27:26;;;;;;;19.37;3.77;;;;;3.60;101852.00;;;;9805618;30;20256;-77
2021/03/04 23:32:27;;;;;;;13.47;3.47;;;;;3.60;101852.00;;;;9811622;30;20240;-76
2021/03/04 23:37:45;;;;;;;14.83;3.60;;;;;3.50;101869.00;;;;9788291;30;20238;-76
2021/03/04 23:42:47;;;;;;;12.20;3.43;;;;;3.50;101864.00;;;;9788441;30;20287;-76
2021/03/04 23:47:51;;;;;;;12.40;2.57;;;;;3.50;101853.00;;;;9773935;30;20240;-76
2021/03/04 23:52:53;;;;;;;6.63;2.03;;;;;3.40;101873.00;;;;9802573;30;20205;-77
2021/03/04 23:57:54;;;;;;;6.93;2.00;;;;;3.40;101872.00;;;;9773663;30;20641;-77
